createdAt,value
2018-04-18T00:00:55.698Z,99636.91
2018-04-18T00:03:06.804Z,99635.78
2018-04-18T00:05:17.955Z,99639.07
2018-04-18T00:07:29.042Z,99640.93
2018-04-18T00:09:40.197Z,99635.34
2018-04-18T00:11:51.285Z,99643.91
2018-04-18T00:14:02.359Z,99632.35
2018-04-18T00:16:13.528Z,99636.74
2018-04-18T00:18:24.634Z,99637.72
2018-04-18T00:20:35.781Z,99641.00
2018-04-18T00:22:46.870Z,99642.06
2018-04-18T00:24:57.973Z,99645.45
2018-04-18T00:27:09.046Z,99644.11
2018-04-18T00:29:20.114Z,99643.74
2018-04-18T00:31:31.250Z,99641.39
2018-04-18T00:33:42.298Z,99645.42
2018-04-18T00:35:53.538Z,99645.22
2018-04-18T00:38:04.626Z,99641.11
2018-04-18T00:40:15.755Z,99650.42
2018-04-18T00:42:26.991Z,99643.63
2018-04-18T00:44:38.053Z,99644.00
2018-04-18T00:46:49.134Z,99646.40
2018-04-18T00:49:00.226Z,99648.08
2018-04-18T00:51:11.382Z,99647.86
2018-04-18T00:53:22.426Z,99651.31
2018-04-18T00:55:33.567Z,99647.78
2018-04-18T00:57:44.674Z,99647.74
2018-04-18T00:59:55.886Z,99649.00
2018-04-18T01:02:06.992Z,99651.39
2018-04-18T01:04:18.081Z,99651.19
2018-04-18T01:06:29.149Z,99655.46
2018-04-18T01:08:40.273Z,99653.78
2018-04-18T01:10:51.357Z,99657.97
2018-04-18T01:13:02.454Z,99656.66
2018-04-18T01:15:13.746Z,99653.41
2018-04-18T01:17:24.847Z,99653.70
2018-04-18T01:19:35.998Z,99654.12
2018-04-18T01:21:47.086Z,99666.33
2018-04-18T01:23:58.205Z,99665.98
2018-04-18T01:26:09.273Z,99673.08
2018-04-18T01:28:20.373Z,99670.41
2018-04-18T01:30:31.450Z,99671.83
2018-04-18T01:32:42.521Z,99678.79
2018-04-18T01:34:53.659Z,99683.45
2018-04-18T01:37:04.710Z,99678.75
2018-04-18T01:39:15.945Z,99678.03
2018-04-18T01:41:27.033Z,99683.11
2018-04-18T01:43:38.090Z,99685.98
2018-04-18T01:45:49.165Z,99690.00
2018-04-18T01:48:00.302Z,99691.95
2018-04-18T01:50:11.478Z,99689.08
2018-04-18T01:52:22.569Z,99694.80
2018-04-18T01:54:33.754Z,99694.00
2018-04-18T01:56:44.840Z,99692.81
2018-04-18T01:58:55.974Z,99698.09
2018-04-18T02:01:07.101Z,99693.34
2018-04-18T02:03:18.186Z,99688.26
2018-04-18T02:05:29.333Z,99692.69
2018-04-18T02:07:40.432Z,99695.82
2018-04-18T02:09:51.595Z,99692.03
2018-04-18T02:12:02.712Z,99693.19
2018-04-18T02:14:13.846Z,99689.21
2018-04-18T02:16:24.933Z,99695.82
2018-04-18T02:18:36.193Z,99695.13
2018-04-18T02:20:47.237Z,99698.36
2018-04-18T02:22:58.314Z,99702.72
2018-04-18T02:25:09.411Z,99699.70
2018-04-18T02:27:20.494Z,99703.70
2018-04-18T02:29:31.654Z,99706.62
2018-04-18T02:31:42.778Z,99705.39
2018-04-18T02:33:53.958Z,99703.73
2018-04-18T02:36:05.002Z,99705.11
2018-04-18T02:38:16.218Z,99705.64
2018-04-18T02:40:27.296Z,99703.56
2018-04-18T02:42:38.415Z,99708.38
2018-04-18T02:44:49.518Z,99708.59
2018-04-18T02:47:00.591Z,99710.98
2018-04-18T02:49:11.925Z,99713.36
2018-04-18T02:51:22.986Z,99711.22
2018-04-18T02:53:34.158Z,99719.34
2018-04-18T02:55:45.193Z,99719.41
2018-04-18T02:57:56.265Z,99720.00
2018-04-18T03:00:07.342Z,99721.78
2018-04-18T03:02:18.379Z,99722.38
2018-04-18T03:04:29.532Z,99720.83
2018-04-18T03:06:40.616Z,99719.08
2018-04-18T03:08:51.823Z,99722.91
2018-04-18T03:11:02.884Z,99723.95
2018-04-18T03:13:14.057Z,99732.16
2018-04-18T03:15:25.162Z,99727.45
2018-04-18T03:17:36.232Z,99724.44
2018-04-18T03:19:47.305Z,99723.98
2018-04-18T03:21:58.414Z,99722.16
2018-04-18T03:24:09.492Z,99721.42
2018-04-18T03:26:20.650Z,99724.88
2018-04-18T03:28:31.745Z,99723.06
2018-04-18T03:30:42.835Z,99715.80
2018-04-18T03:32:53.918Z,99717.97
2018-04-18T03:35:05.015Z,99722.25
2018-04-18T03:37:16.121Z,99725.66
2018-04-18T03:39:27.218Z,99720.43
2018-04-18T03:41:38.302Z,99723.38
2018-04-18T03:43:49.352Z,99728.58
2018-04-18T03:46:00.539Z,99732.02
2018-04-18T03:48:11.578Z,99728.73
2018-04-18T03:50:22.682Z,99731.02
2018-04-18T03:52:33.770Z,99734.97
2018-04-18T03:54:45.689Z,99730.75
2018-04-18T03:56:56.765Z,99730.45
2018-04-18T03:59:07.822Z,99732.76
2018-04-18T04:01:18.885Z,99736.75
2018-04-18T04:03:30.038Z,99737.20
2018-04-18T04:05:41.127Z,99740.25
2018-04-18T04:07:52.273Z,99739.92
2018-04-18T04:10:03.352Z,99740.53
2018-04-18T04:12:14.466Z,99735.77
2018-04-18T04:14:25.526Z,99738.97
2018-04-18T04:16:48.945Z,99742.27
2018-04-18T04:19:12.154Z,99744.73
2018-04-18T04:21:35.341Z,99743.38
2018-04-18T04:23:58.602Z,99745.94
2018-04-18T04:26:09.662Z,99754.66
2018-04-18T04:28:20.738Z,99754.20
2018-04-18T04:30:31.825Z,99758.03
2018-04-18T04:32:42.945Z,99750.19
2018-04-18T04:34:54.120Z,99753.56
2018-04-18T04:37:05.251Z,99752.15
2018-04-18T04:39:16.381Z,99756.07
2018-04-18T04:41:27.471Z,99760.84
2018-04-18T04:43:38.607Z,99759.07
2018-04-18T04:45:49.686Z,99759.63
2018-04-18T04:48:00.757Z,99758.11
2018-04-18T04:50:11.866Z,99763.42
2018-04-18T04:52:22.991Z,99759.95
2018-04-18T04:54:34.125Z,99766.64
2018-04-18T04:56:45.204Z,99765.02
2018-04-18T04:58:56.274Z,99772.97
2018-04-18T05:01:07.375Z,99769.13
2018-04-18T05:03:18.417Z,99768.89
2018-04-18T05:05:29.586Z,99773.82
2018-04-18T05:07:40.672Z,99779.28
2018-04-18T05:09:51.819Z,99775.81
2018-04-18T05:12:02.903Z,99780.60
2018-04-18T05:14:14.031Z,99782.43
2018-04-18T05:16:25.098Z,99783.89
2018-04-18T05:18:36.188Z,99783.89
2018-04-18T05:20:47.306Z,99783.02
2018-04-18T05:22:58.411Z,99784.14
2018-04-18T05:25:09.537Z,99791.27
2018-04-18T05:27:20.630Z,99789.16
2018-04-18T05:29:31.714Z,99788.27
2018-04-18T05:31:43.009Z,99789.02
2018-04-18T05:33:54.327Z,99795.98
2018-04-18T05:36:05.429Z,99795.79
2018-04-18T05:38:16.616Z,99790.70
2018-04-18T05:40:27.689Z,99791.11
2018-04-18T05:42:38.821Z,99792.34
2018-04-18T05:44:49.955Z,99793.38
2018-04-18T05:47:01.012Z,99798.69
2018-04-18T05:49:12.213Z,99792.77
2018-04-18T05:51:23.321Z,99796.58
2018-04-18T05:53:34.496Z,99795.16
2018-04-18T05:55:45.769Z,99796.13
2018-04-18T05:57:56.927Z,99797.39
2018-04-18T06:00:08.002Z,99793.88
2018-04-18T06:02:19.114Z,99798.38
2018-04-18T06:04:30.250Z,99794.41
2018-04-18T06:06:41.322Z,99793.75
2018-04-18T06:08:52.475Z,99797.84
2018-04-18T06:11:03.546Z,99796.86
2018-04-18T06:13:14.826Z,99796.03
2018-04-18T06:15:25.873Z,99793.07
2018-04-18T06:17:37.138Z,99790.69
2018-04-18T06:19:48.244Z,99795.37
2018-04-18T06:21:59.382Z,99789.47
2018-04-18T06:24:10.454Z,99789.28
2018-04-18T06:26:21.538Z,99786.74
2018-04-18T06:28:32.683Z,99788.23
2018-04-18T06:30:43.818Z,99784.83
2018-04-18T06:32:54.977Z,99784.48
2018-04-18T06:35:06.327Z,99789.30
2018-04-18T06:37:17.434Z,99784.64
2018-04-18T06:39:28.590Z,99787.16
2018-04-18T06:41:39.657Z,99789.05
2018-04-18T06:43:50.887Z,99788.61
2018-04-18T06:46:01.974Z,99786.48
2018-04-18T06:48:13.098Z,99787.50
2018-04-18T06:50:24.239Z,99789.28
2018-04-18T06:52:35.386Z,99794.83
2018-04-18T06:54:46.550Z,99792.95
2018-04-18T06:56:57.614Z,99789.50
2018-04-18T06:59:08.822Z,99790.27
2018-04-18T07:01:19.940Z,99794.06
2018-04-18T07:03:31.006Z,99794.29
2018-04-18T07:05:42.135Z,99791.56
2018-04-18T07:07:53.226Z,99795.25
2018-04-18T07:10:04.342Z,99797.84
2018-04-18T07:12:15.472Z,99791.25
2018-04-18T07:14:26.615Z,99789.55
2018-04-18T07:16:37.698Z,99788.18
2018-04-18T07:18:48.778Z,99791.24
2018-04-18T07:20:59.886Z,99791.02
2018-04-18T07:23:10.959Z,99785.78
2018-04-18T07:25:22.026Z,99788.79
2018-04-18T07:27:33.159Z,99790.28
2018-04-18T07:29:44.249Z,99783.03
2018-04-18T07:31:55.325Z,99782.50
2018-04-18T07:34:06.515Z,99784.23
2018-04-18T07:36:17.596Z,99784.94
2018-04-18T07:38:28.718Z,99789.14
2018-04-18T07:40:39.802Z,99786.03
2018-04-18T07:42:50.946Z,99795.58
2018-04-18T07:45:02.022Z,99789.50
2018-04-18T07:47:13.132Z,99798.55
2018-04-18T07:49:24.276Z,99800.28
2018-04-18T07:51:35.338Z,99797.58
2018-04-18T07:53:46.440Z,99799.20
2018-04-18T07:55:57.542Z,99795.84
2018-04-18T07:58:08.710Z,99790.56
2018-04-18T08:00:19.821Z,99795.82
2018-04-18T08:02:30.932Z,99795.42
2018-04-18T08:04:42.038Z,99791.98
2018-04-18T08:06:53.302Z,99795.70
2018-04-18T08:09:05.223Z,99796.30
2018-04-18T08:11:16.349Z,99794.73
2018-04-18T08:13:27.417Z,99793.31
2018-04-18T08:15:38.572Z,99798.55
2018-04-18T08:17:49.675Z,99797.79
2018-04-18T08:20:00.818Z,99797.95
2018-04-18T08:22:11.911Z,99801.59
2018-04-18T08:24:23.069Z,99806.54
2018-04-18T08:26:34.205Z,99804.38
2018-04-18T08:28:45.287Z,99803.48
2018-04-18T08:30:56.369Z,99802.59
2018-04-18T08:33:07.431Z,99809.13
2018-04-18T08:35:18.619Z,99813.39
2018-04-18T08:37:29.802Z,99805.75
2018-04-18T08:39:40.938Z,99807.64
2018-04-18T08:41:52.049Z,99805.45
2018-04-18T08:44:03.206Z,99809.53
2018-04-18T08:46:14.322Z,99803.63
2018-04-18T08:48:25.440Z,99803.09
2018-04-18T08:50:36.466Z,99810.84
2018-04-18T08:52:47.594Z,99811.03
2018-04-18T08:54:58.821Z,99802.66
2018-04-18T08:57:09.933Z,99808.16
2018-04-18T08:59:21.161Z,99811.84
2018-04-18T09:01:32.300Z,99810.45
2018-04-18T09:03:43.594Z,99808.66
2018-04-18T09:05:54.703Z,99807.07
2018-04-18T09:08:05.836Z,99801.08
2018-04-18T09:10:16.998Z,99803.84
2018-04-18T09:12:28.110Z,99806.88
2018-04-18T09:14:39.229Z,99805.41
2018-04-18T09:16:50.294Z,99806.59
2018-04-18T09:19:01.496Z,99803.08
2018-04-18T09:21:12.713Z,99802.77
2018-04-18T09:23:23.839Z,99801.13
2018-04-18T09:25:35.030Z,99798.12
2018-04-18T09:27:46.175Z,99800.72
2018-04-18T09:29:57.405Z,99800.55
2018-04-18T09:32:08.471Z,99803.00
2018-04-18T09:34:19.572Z,99802.37
2018-04-18T09:36:30.666Z,99801.23
2018-04-18T09:38:41.750Z,99806.88
2018-04-18T09:40:52.976Z,99803.52
2018-04-18T09:43:04.069Z,99804.87
2018-04-18T09:45:15.343Z,99800.31
2018-04-18T09:47:26.406Z,99796.64
2018-04-18T09:49:37.554Z,99800.61
2018-04-18T09:51:48.638Z,99796.30
2018-04-18T09:53:59.753Z,99794.33
2018-04-18T09:56:10.817Z,99799.47
2018-04-18T09:58:21.943Z,99796.53
2018-04-18T10:00:39.089Z,99798.98
2018-04-18T10:02:56.155Z,99799.27
2018-04-18T10:05:07.395Z,99796.31
2018-04-18T10:07:18.477Z,99797.68
2018-04-18T10:09:29.753Z,99808.45
2018-04-18T10:11:40.897Z,99800.53
2018-04-18T10:13:52.018Z,99796.73
2018-04-18T10:16:03.125Z,99793.84
2018-04-18T10:18:14.223Z,99798.16
2018-04-18T10:20:25.293Z,99797.59
2018-04-18T10:22:36.414Z,99795.02
2018-04-18T10:24:47.653Z,99793.38
2018-04-18T10:26:58.791Z,99783.16
2018-04-18T10:29:09.949Z,99778.77
2018-04-18T10:31:21.160Z,99780.28
2018-04-18T10:33:32.266Z,99779.42
2018-04-18T10:35:43.487Z,99778.31
2018-04-18T10:37:54.603Z,99780.74
2018-04-18T10:40:05.710Z,99777.99
2018-04-18T10:42:16.777Z,99790.38
2018-04-18T10:44:27.892Z,99778.44
2018-04-18T10:46:38.976Z,99777.06
2018-04-18T10:48:50.157Z,99769.81
2018-04-18T10:51:01.387Z,99771.67
2018-04-18T10:53:12.453Z,99778.41
2018-04-18T10:55:23.615Z,99780.43
2018-04-18T10:57:34.710Z,99773.08
2018-04-18T10:59:45.827Z,99765.45
2018-04-18T11:01:56.891Z,99760.02
2018-04-18T11:04:08.081Z,99770.39
2018-04-18T11:06:19.245Z,99765.40
2018-04-18T11:08:30.379Z,99762.73
2018-04-18T11:10:41.674Z,99757.97
2018-04-18T11:12:52.747Z,99759.63
2018-04-18T11:15:03.905Z,99757.66
2018-04-18T11:17:14.999Z,99752.66
2018-04-18T11:19:26.136Z,99748.59
2018-04-18T11:21:37.221Z,99754.44
2018-04-18T11:23:48.341Z,99753.16
2018-04-18T11:25:59.490Z,99742.98
2018-04-18T11:28:10.558Z,99753.73
2018-04-18T11:30:21.706Z,99745.58
2018-04-18T11:32:32.799Z,99742.83
2018-04-18T11:34:44.310Z,99747.01
2018-04-18T11:36:55.458Z,99743.59
2018-04-18T11:39:06.558Z,99740.01
2018-04-18T11:41:17.856Z,99741.91
2018-04-18T11:43:28.957Z,99736.72
2018-04-18T11:45:40.014Z,99735.16
2018-04-18T11:47:51.178Z,99733.95
2018-04-18T11:50:02.274Z,99737.57
2018-04-18T11:52:13.435Z,99743.35
2018-04-18T11:54:24.549Z,99735.58
2018-04-18T11:56:35.681Z,99729.86
2018-04-18T11:58:46.830Z,99740.92
2018-04-18T12:00:58.042Z,99736.84
2018-04-18T12:03:09.142Z,99735.58
2018-04-18T12:05:20.239Z,99730.07
2018-04-18T12:07:31.330Z,99727.70
2018-04-18T12:09:42.424Z,99724.84
2018-04-18T12:11:53.617Z,99732.91
2018-04-18T12:14:04.783Z,99730.07
2018-04-18T12:16:16.022Z,99728.59
2018-04-18T12:18:27.261Z,99736.50
2018-04-18T12:20:38.362Z,99728.51
2018-04-18T12:22:49.712Z,99722.08
2018-04-18T12:25:00.782Z,99723.00
2018-04-18T12:27:12.055Z,99736.63
2018-04-18T12:29:23.157Z,99729.19
2018-04-18T12:31:34.226Z,99733.49
2018-04-18T12:33:45.370Z,99722.42
2018-04-18T12:35:56.438Z,99719.28
2018-04-18T12:38:07.571Z,99721.75
2018-04-18T12:40:18.651Z,99727.41
2018-04-18T12:42:29.757Z,99731.69
2018-04-18T12:44:40.853Z,99726.32
2018-04-18T12:46:52.082Z,99722.30
2018-04-18T12:49:03.217Z,99713.00
2018-04-18T12:51:14.273Z,99712.53
2018-04-18T12:53:25.372Z,99720.41
2018-04-18T12:55:36.493Z,99711.92
2018-04-18T12:57:47.628Z,99713.73
2018-04-18T12:59:58.737Z,99707.96
2018-04-18T13:02:09.927Z,99706.46
2018-04-18T13:04:21.006Z,99709.46
2018-04-18T13:06:32.127Z,99710.81
2018-04-18T13:08:43.222Z,99701.84
2018-04-18T13:10:54.359Z,99706.24
2018-04-18T13:13:05.429Z,99702.06
2018-04-18T13:15:16.517Z,99707.64
2018-04-18T13:17:27.705Z,99704.98
2018-04-18T13:19:38.867Z,99706.30
2018-04-18T13:21:50.090Z,99701.67
2018-04-18T13:24:01.189Z,99696.40
2018-04-18T13:26:12.292Z,99700.92
2018-04-18T13:28:23.385Z,99694.80
2018-04-18T13:30:34.474Z,99694.62
2018-04-18T13:32:45.553Z,99703.44
2018-04-18T13:34:56.638Z,99700.44
2018-04-18T13:37:07.833Z,99689.92
2018-04-18T13:39:19.873Z,99689.73
2018-04-18T13:41:30.951Z,99689.81
2018-04-18T13:43:42.118Z,99684.07
2018-04-18T13:45:53.218Z,99691.39
2018-04-18T13:48:04.322Z,99688.93
2018-04-18T13:50:15.434Z,99684.25
2018-04-18T13:52:26.503Z,99691.54
2018-04-18T13:54:37.590Z,99681.94
2018-04-18T13:56:48.661Z,99678.09
2018-04-18T13:58:59.802Z,99670.70
2018-04-18T14:01:10.941Z,99673.64
2018-04-18T14:03:22.175Z,99686.59
2018-04-18T14:05:33.259Z,99677.05
2018-04-18T14:07:44.374Z,99670.22
2018-04-18T14:09:55.464Z,99670.12
2018-04-18T14:12:06.674Z,99671.89
2018-04-18T14:14:17.872Z,99674.09
2018-04-18T14:16:29.014Z,99670.77
2018-04-18T14:18:40.086Z,99671.22
2018-04-18T14:20:51.243Z,99659.13
2018-04-18T14:23:02.439Z,99669.43
2018-04-18T14:25:13.517Z,99663.11
2018-04-18T14:27:24.666Z,99663.28
2018-04-18T14:29:35.734Z,99661.70
2018-04-18T14:31:46.871Z,99658.92
2018-04-18T14:33:57.985Z,99658.92
2018-04-18T14:36:09.075Z,99667.08
2018-04-18T14:38:20.229Z,99662.36
2018-04-18T14:40:31.323Z,99654.90
2018-04-18T14:42:42.582Z,99662.83
2018-04-18T14:44:53.683Z,99660.62
2018-04-18T14:47:04.844Z,99660.95
2018-04-18T14:49:16.115Z,99646.73
2018-04-18T14:51:27.186Z,99648.78
2018-04-18T14:53:38.395Z,99652.98
2018-04-18T14:55:49.452Z,99646.59
2018-04-18T14:58:00.581Z,99652.13
2018-04-18T15:00:11.659Z,99636.92
2018-04-18T15:02:22.730Z,99646.38
2018-04-18T15:04:33.859Z,99637.41
2018-04-18T15:06:44.983Z,99638.20
2018-04-18T15:08:56.105Z,99643.19
2018-04-18T15:11:07.278Z,99636.05
2018-04-18T15:13:18.365Z,99646.84
2018-04-18T15:15:29.462Z,99637.45
2018-04-18T15:17:40.540Z,99644.69
2018-04-18T15:19:51.617Z,99639.03
2018-04-18T15:22:02.685Z,99642.02
2018-04-18T15:24:13.812Z,99639.38
2018-04-18T15:26:24.960Z,99625.37
2018-04-18T15:28:36.086Z,99627.61
2018-04-18T15:30:47.154Z,99623.33
2018-04-18T15:32:58.254Z,99623.48
2018-04-18T15:35:09.345Z,99628.05
2018-04-18T15:37:20.499Z,99625.44
2018-04-18T15:39:31.581Z,99620.78
2018-04-18T15:41:42.692Z,99615.59
2018-04-18T15:43:53.786Z,99619.63
2018-04-18T15:46:05.059Z,99620.63
2018-04-18T15:48:16.242Z,99623.28
2018-04-18T15:50:27.357Z,99626.06
2018-04-18T15:52:38.488Z,99620.63
2018-04-18T15:54:49.587Z,99622.35
2018-04-18T15:57:00.665Z,99617.91
2018-04-18T15:59:11.771Z,99618.91
2018-04-18T16:01:22.878Z,99611.27
2018-04-18T16:03:34.091Z,99614.63
2018-04-18T16:05:45.151Z,99613.34
2018-04-18T16:07:56.242Z,99614.72
2018-04-18T16:10:07.358Z,99609.28
2018-04-18T16:12:18.473Z,99617.63
2018-04-18T16:14:29.563Z,99615.77
2018-04-18T16:16:40.682Z,99610.03
2018-04-18T16:18:51.786Z,99613.14
2018-04-18T16:21:02.994Z,99617.67
2018-04-18T16:23:14.161Z,99612.77
2018-04-18T16:25:25.341Z,99610.86
2018-04-18T16:27:36.542Z,99611.69
2018-04-18T16:29:47.624Z,99612.77
2018-04-18T16:31:58.794Z,99612.36
2018-04-18T16:34:09.851Z,99606.02
2018-04-18T16:36:20.925Z,99604.94
2018-04-18T16:38:32.019Z,99611.03
2018-04-18T16:40:43.205Z,99615.69
2018-04-18T16:42:54.356Z,99609.05
2018-04-18T16:45:05.429Z,99607.38
2018-04-18T16:47:16.638Z,99600.95
2018-04-18T16:49:27.695Z,99605.56
2018-04-18T16:51:38.813Z,99598.46
2018-04-18T16:53:49.915Z,99608.59
2018-04-18T16:56:01.054Z,99599.46
2018-04-18T16:58:12.142Z,99602.41
2018-04-18T17:00:23.212Z,99603.65
2018-04-18T17:02:34.466Z,99600.83
2018-04-18T17:04:45.553Z,99598.70
2018-04-18T17:06:56.821Z,99597.80
2018-04-18T17:09:07.967Z,99598.04
2018-04-18T17:11:19.046Z,99597.84
2018-04-18T17:13:30.150Z,99604.48
2018-04-18T17:15:41.226Z,99603.36
2018-04-18T17:17:52.358Z,99600.11
2018-04-18T17:20:03.488Z,99601.07
2018-04-18T17:22:14.643Z,99592.22
2018-04-18T17:24:25.821Z,99598.03
2018-04-18T17:26:37.010Z,99598.53
2018-04-18T17:28:48.206Z,99601.01
2018-04-18T17:30:59.270Z,99600.70
2018-04-18T17:33:10.381Z,99603.45
2018-04-18T17:35:21.458Z,99603.52
2018-04-18T17:37:32.579Z,99602.34
2018-04-18T17:39:43.657Z,99602.78
2018-04-18T17:41:54.860Z,99601.52
2018-04-18T17:44:05.961Z,99598.48
2018-04-18T17:46:17.130Z,99604.06
2018-04-18T17:48:28.242Z,99605.04
2018-04-18T17:50:39.370Z,99604.33
2018-04-18T17:52:50.473Z,99598.63
2018-04-18T17:55:01.614Z,99604.15
2018-04-18T17:57:12.681Z,99610.44
2018-04-18T17:59:23.741Z,99608.15
2018-04-18T18:01:34.919Z,99610.44
2018-04-18T18:03:46.050Z,99610.77
2018-04-18T18:05:57.412Z,99608.73
2018-04-18T18:08:08.525Z,99611.66
2018-04-18T18:10:19.678Z,99604.73
2018-04-18T18:12:30.788Z,99614.21
2018-04-18T18:14:41.907Z,99607.09
2018-04-18T18:16:52.995Z,99613.13
2018-04-18T18:19:04.042Z,99617.02
2018-04-18T18:21:15.191Z,99617.03
2018-04-18T18:23:26.426Z,99618.27
2018-04-18T18:25:37.531Z,99617.05
2018-04-18T18:27:48.630Z,99615.23
2018-04-18T18:29:59.699Z,99620.27
2018-04-18T18:32:10.830Z,99617.63
2018-04-18T18:34:21.958Z,99618.00
2018-04-18T18:36:33.112Z,99620.01
2018-04-18T18:38:44.226Z,99626.66
2018-04-18T18:40:55.496Z,99626.95
2018-04-18T18:43:06.716Z,99624.01
2018-04-18T18:45:17.774Z,99632.06
2018-04-18T18:47:28.921Z,99631.49
2018-04-18T18:49:40.022Z,99630.48
2018-04-18T18:51:51.194Z,99632.75
2018-04-18T18:54:02.325Z,99629.83
2018-04-18T18:56:13.407Z,99636.00
2018-04-18T18:58:24.582Z,99637.23
2018-04-18T19:00:35.636Z,99636.73
2018-04-18T19:02:46.754Z,99646.06
2018-04-18T19:04:57.910Z,99648.11
2018-04-18T19:07:09.058Z,99645.13
2018-04-18T19:09:20.212Z,99650.23
2018-04-18T19:11:31.329Z,99653.72
2018-04-18T19:13:42.417Z,99654.41
2018-04-18T19:15:53.507Z,99655.22
2018-04-18T19:18:04.627Z,99665.55
2018-04-18T19:20:15.770Z,99662.72
2018-04-18T19:22:26.907Z,99659.40
2018-04-18T19:24:38.067Z,99663.25
2018-04-18T19:26:49.328Z,99661.22
2018-04-18T19:29:00.437Z,99663.74
2018-04-18T19:31:11.651Z,99663.28
2018-04-18T19:33:22.729Z,99665.58
2018-04-18T19:35:33.890Z,99662.16
2018-04-18T19:37:44.982Z,99660.13
2018-04-18T19:39:56.040Z,99658.02
2018-04-18T19:42:07.180Z,99657.90
2018-04-18T19:44:18.527Z,99657.59
2018-04-18T19:46:29.708Z,99664.56
2018-04-18T19:48:40.839Z,99661.62
2018-04-18T19:50:52.002Z,99661.41
2018-04-18T19:53:03.290Z,99667.16
2018-04-18T19:55:14.426Z,99662.28
2018-04-18T19:57:25.622Z,99663.26
2018-04-18T19:59:36.706Z,99666.22
2018-04-18T20:01:47.840Z,99661.80
2018-04-18T20:03:58.966Z,99663.17
2018-04-18T20:06:10.049Z,99659.28
2018-04-18T20:08:21.211Z,99660.09
2018-04-18T20:10:32.289Z,99658.63
2018-04-18T20:12:44.396Z,99657.64
2018-04-18T20:14:55.556Z,99659.22
2018-04-18T20:17:06.677Z,99658.87
2018-04-18T20:19:17.873Z,99656.20
2018-04-18T20:21:32.094Z,99652.45
2018-04-18T20:23:43.270Z,99645.05
2018-04-18T20:25:54.407Z,99652.62
2018-04-18T20:28:05.566Z,99651.56
2018-04-18T20:30:16.646Z,99654.07
2018-04-18T20:32:27.774Z,99652.87
2018-04-18T20:34:38.987Z,99650.06
2018-04-18T20:36:50.230Z,99650.92
2018-04-18T20:39:01.593Z,99654.27
2018-04-18T20:41:12.698Z,99651.88
2018-04-18T20:43:23.985Z,99655.10
2018-04-18T20:45:35.085Z,99656.10
2018-04-18T20:47:46.255Z,99651.59
2018-04-18T20:49:57.374Z,99652.35
2018-04-18T20:52:08.451Z,99648.28
2018-04-18T20:54:19.569Z,99645.27
2018-04-18T20:56:30.763Z,99649.84
2018-04-18T20:58:42.357Z,99649.35
2018-04-18T21:00:53.601Z,99643.73
2018-04-18T21:03:04.699Z,99642.59
2018-04-18T21:05:15.922Z,99641.94
2018-04-18T21:07:27.126Z,99644.15
2018-04-18T21:09:38.329Z,99641.20
2018-04-18T21:11:49.449Z,99643.02
2018-04-18T21:14:00.518Z,99637.47
2018-04-18T21:16:11.605Z,99636.30
2018-04-18T21:18:22.714Z,99633.90
2018-04-18T21:20:33.796Z,99635.80
2018-04-18T21:22:44.887Z,99640.84
2018-04-18T21:24:56.021Z,99634.31
2018-04-18T21:27:07.205Z,99635.97
2018-04-18T21:29:18.311Z,99633.25
2018-04-18T21:31:29.508Z,99637.84
2018-04-18T21:33:40.570Z,99641.06
2018-04-18T21:35:51.632Z,99640.98
2018-04-18T21:38:02.726Z,99637.48
2018-04-18T21:40:13.794Z,99640.09
2018-04-18T21:42:24.851Z,99640.47
2018-04-18T21:44:36.011Z,99639.68
2018-04-18T21:46:47.118Z,99641.31
2018-04-18T21:48:58.174Z,99638.94
2018-04-18T21:51:09.285Z,99632.22
2018-04-18T21:53:20.398Z,99631.38
2018-04-18T21:55:31.490Z,99638.20
2018-04-18T21:57:42.584Z,99637.84
2018-04-18T21:59:53.770Z,99640.32
2018-04-18T22:02:04.836Z,99640.55
2018-04-18T22:04:16.021Z,99638.20
2018-04-18T22:06:27.122Z,99638.56
2018-04-18T22:08:38.274Z,99636.88
2018-04-18T22:10:49.377Z,99634.77
2018-04-18T22:13:00.429Z,99639.80
2018-04-18T22:15:11.512Z,99640.70
2018-04-18T22:17:22.583Z,99639.06
2018-04-18T22:19:33.702Z,99635.27
2018-04-18T22:21:44.775Z,99640.94
2018-04-18T22:23:55.867Z,99638.97
2018-04-18T22:26:06.969Z,99645.39
2018-04-18T22:28:18.125Z,99640.89
2018-04-18T22:30:29.181Z,99642.37
2018-04-18T22:32:40.289Z,99641.06
2018-04-18T22:34:51.401Z,99640.71
2018-04-18T22:37:02.530Z,99644.58
2018-04-18T22:39:13.645Z,99636.42
2018-04-18T22:41:24.793Z,99639.67
2018-04-18T22:43:35.996Z,99636.73
2018-04-18T22:45:47.042Z,99641.67
2018-04-18T22:47:58.129Z,99633.92
2018-04-18T22:50:09.238Z,99639.02
2018-04-18T22:52:20.318Z,99638.35
2018-04-18T22:54:31.425Z,99641.14
2018-04-18T22:56:42.545Z,99637.33
2018-04-18T22:58:53.681Z,99638.48
2018-04-18T23:01:04.773Z,99642.94
2018-04-18T23:03:15.857Z,99641.58
2018-04-18T23:05:26.931Z,99634.77
2018-04-18T23:07:38.017Z,99636.19
2018-04-18T23:09:49.093Z,99639.38
2018-04-18T23:12:00.213Z,99633.64
2018-04-18T23:14:11.340Z,99635.20
2018-04-18T23:16:22.475Z,99630.34
2018-04-18T23:18:33.557Z,99628.88
2018-04-18T23:20:44.704Z,99630.70
2018-04-18T23:22:55.790Z,99621.72
2018-04-18T23:25:06.859Z,99631.12
2018-04-18T23:27:17.902Z,99625.56
2018-04-18T23:29:29.027Z,99624.31
2018-04-18T23:31:40.221Z,99621.55
2018-04-18T23:33:51.297Z,99623.95
2018-04-18T23:36:02.453Z,99624.09
2018-04-18T23:38:13.510Z,99621.91
2018-04-18T23:40:24.615Z,99628.88
2018-04-18T23:42:35.702Z,99617.25
2018-04-18T23:44:46.746Z,99626.48
2018-04-18T23:46:57.846Z,99619.00
2018-04-18T23:49:08.881Z,99620.55
2018-04-18T23:51:20.109Z,99617.69
2018-04-18T23:53:31.233Z,99617.20
2018-04-18T23:55:42.329Z,99617.63
2018-04-18T23:57:53.377Z,99618.59
